sensor_id;sensor_type;location;lat;lon;timestamp;pressure;altitude;pressure_sealevel;temperature;humidity
60019;BME280;45870;42.528;26.740;2023-07-13T00:01:48;99718.25;;;28.40;49.89
60019;BME280;45870;42.528;26.740;2023-07-13T00:04:16;99741.28;;;29.08;48.52
60019;BME280;45870;42.528;26.740;2023-07-13T00:06:43;99744.03;;;29.36;47.65
60019;BME280;45870;42.528;26.740;2023-07-13T00:09:14;99752.19;;;29.01;48.30
60019;BME280;45870;42.528;26.740;2023-07-13T00:11:40;99732.59;;;29.25;47.15
60019;BME280;45870;42.528;26.740;2023-07-13T00:14:06;99741.88;;;29.30;47.20
60019;BME280;45870;42.528;26.740;2023-07-13T00:16:37;99744.13;;;29.40;46.77
60019;BME280;45870;42.528;26.740;2023-07-13T00:19:04;99700.22;;;29.17;46.98
60019;BME280;45870;42.528;26.740;2023-07-13T00:21:30;99733.53;;;29.45;46.98
60019;BME280;45870;42.528;26.740;2023-07-13T00:23:56;99732.28;;;29.58;45.82
60019;BME280;45870;42.528;26.740;2023-07-13T00:26:22;99736.16;;;28.67;48.38
60019;BME280;45870;42.528;26.740;2023-07-13T00:28:47;99725.56;;;29.00;47.63
60019;BME280;45870;42.528;26.740;2023-07-13T00:31:13;99689.81;;;29.14;46.54
60019;BME280;45870;42.528;26.740;2023-07-13T00:33:41;99711.28;;;29.45;46.08
60019;BME280;45870;42.528;26.740;2023-07-13T00:36:08;99720.97;;;29.36;46.10
60019;BME280;45870;42.528;26.740;2023-07-13T00:38:34;99718.94;;;29.20;46.92
60019;BME280;45870;42.528;26.740;2023-07-13T00:41:00;99714.06;;;29.30;46.72
60019;BME280;45870;42.528;26.740;2023-07-13T00:43:27;99717.25;;;29.16;46.95
60019;BME280;45870;42.528;26.740;2023-07-13T00:48:21;99673.28;;;28.90;47.16
60019;BME280;45870;42.528;26.740;2023-07-13T00:50:52;99669.34;;;28.91;47.04
60019;BME280;45870;42.528;26.740;2023-07-13T00:53:19;99701.88;;;28.91;47.67
60019;BME280;45870;42.528;26.740;2023-07-13T00:55:47;99681.63;;;28.90;46.88
60019;BME280;45870;42.528;26.740;2023-07-13T00:58:14;99709.06;;;29.07;46.96
60019;BME280;45870;42.528;26.740;2023-07-13T01:00:41;99653.94;;;27.98;49.70
60019;BME280;45870;42.528;26.740;2023-07-13T01:03:07;99692.69;;;29.02;47.59
60019;BME280;45870;42.528;26.740;2023-07-13T01:05:34;99694.72;;;28.90;47.70
60019;BME280;45870;42.528;26.740;2023-07-13T01:08:01;99698.63;;;28.33;49.33
60019;BME280;45870;42.528;26.740;2023-07-13T01:10:29;99643.72;;;28.26;48.82
60019;BME280;45870;42.528;26.740;2023-07-13T01:12:55;99664.84;;;28.87;47.57
60019;BME280;45870;42.528;26.740;2023-07-13T01:18:09;99698.81;;;28.52;48.98
60019;BME280;45870;42.528;26.740;2023-07-13T01:20:36;99700.56;;;26.66;54.88
60019;BME280;45870;42.528;26.740;2023-07-13T01:23:07;99698.13;;;28.43;49.62
60019;BME280;45870;42.528;26.740;2023-07-13T01:25:34;99702.97;;;26.89;53.10
60019;BME280;45870;42.528;26.740;2023-07-13T01:28:01;99700.91;;;28.43;48.93
60019;BME280;45870;42.528;26.740;2023-07-13T01:30:27;99699.53;;;26.38;54.17
60019;BME280;45870;42.528;26.740;2023-07-13T01:32:53;99695.34;;;28.43;48.84
60019;BME280;45870;42.528;26.740;2023-07-13T01:35:18;99645.53;;;28.35;47.87
60019;BME280;45870;42.528;26.740;2023-07-13T01:37:44;99692.41;;;28.64;47.93
60019;BME280;45870;42.528;26.740;2023-07-13T01:40:11;99701.41;;;28.61;47.51
60019;BME280;45870;42.528;26.740;2023-07-13T01:42:38;99700.44;;;25.33;56.69
60019;BME280;45870;42.528;26.740;2023-07-13T01:45:05;99696.97;;;27.56;50.42
60019;BME280;45870;42.528;26.740;2023-07-13T01:47:31;99646.06;;;28.12;47.92
60019;BME280;45870;42.528;26.740;2023-07-13T01:49:57;99698.63;;;28.61;46.74
60019;BME280;45870;42.528;26.740;2023-07-13T01:52:23;99692.19;;;28.57;46.62
60019;BME280;45870;42.528;26.740;2023-07-13T01:54:49;99697.03;;;28.60;46.46
60019;BME280;45870;42.528;26.740;2023-07-13T01:57:15;99691.28;;;28.13;47.67
60019;BME280;45870;42.528;26.740;2023-07-13T01:59:40;99684.41;;;28.35;46.87
60019;BME280;45870;42.528;26.740;2023-07-13T02:02:06;99694.03;;;28.25;46.95
60019;BME280;45870;42.528;26.740;2023-07-13T02:04:32;99677.69;;;28.36;46.08
60019;BME280;45870;42.528;26.740;2023-07-13T02:06:58;99685.72;;;28.13;47.58
60019;BME280;45870;42.528;26.740;2023-07-13T02:09:24;99692.06;;;28.25;47.03
60019;BME280;45870;42.528;26.740;2023-07-13T02:11:49;99693.25;;;28.12;47.48
60019;BME280;45870;42.528;26.740;2023-07-13T02:14:15;99702.50;;;28.16;46.86
60019;BME280;45870;42.528;26.740;2023-07-13T02:16:41;99689.34;;;27.41;48.20
60019;BME280;45870;42.528;26.740;2023-07-13T02:19:07;99698.94;;;27.67;47.97
60019;BME280;45870;42.528;26.740;2023-07-13T02:21:33;99690.59;;;27.19;48.78
60019;BME280;45870;42.528;26.740;2023-07-13T02:23:59;99692.22;;;27.80;47.86
60019;BME280;45870;42.528;26.740;2023-07-13T02:26:25;99692.78;;;27.98;47.60
60019;BME280;45870;42.528;26.740;2023-07-13T02:28:51;99690.72;;;27.95;47.19
60019;BME280;45870;42.528;26.740;2023-07-13T02:31:17;99699.28;;;28.14;46.72
60019;BME280;45870;42.528;26.740;2023-07-13T02:33:43;99701.13;;;28.10;46.52
60019;BME280;45870;42.528;26.740;2023-07-13T02:36:10;99700.84;;;28.27;46.43
60019;BME280;45870;42.528;26.740;2023-07-13T02:38:36;99699.09;;;28.35;46.03
60019;BME280;45870;42.528;26.740;2023-07-13T02:41:04;99682.59;;;28.02;46.73
60019;BME280;45870;42.528;26.740;2023-07-13T02:43:29;99679.84;;;28.14;46.08
60019;BME280;45870;42.528;26.740;2023-07-13T02:45:55;99679.84;;;27.29;46.89
60019;BME280;45870;42.528;26.740;2023-07-13T02:48:21;99693.97;;;27.73;46.91
60019;BME280;45870;42.528;26.740;2023-07-13T02:50:47;99697.84;;;27.23;47.92
60019;BME280;45870;42.528;26.740;2023-07-13T02:53:12;99676.50;;;27.85;46.80
60019;BME280;45870;42.528;26.740;2023-07-13T02:55:38;99645.66;;;27.74;46.51
60019;BME280;45870;42.528;26.740;2023-07-13T02:58:06;99696.38;;;26.60;49.90
60019;BME280;45870;42.528;26.740;2023-07-13T03:00:32;99692.00;;;26.92;48.80
60019;BME280;45870;42.528;26.740;2023-07-13T03:02:58;99681.03;;;27.53;47.34
60019;BME280;45870;42.528;26.740;2023-07-13T03:05:24;99687.81;;;27.31;48.42
60019;BME280;45870;42.528;26.740;2023-07-13T03:07:49;99691.53;;;27.96;47.58
60019;BME280;45870;42.528;26.740;2023-07-13T03:10:15;99669.22;;;27.92;46.51
60019;BME280;45870;42.528;26.740;2023-07-13T03:12:41;99688.06;;;28.78;46.16
60019;BME280;45870;42.528;26.740;2023-07-13T03:15:08;99688.00;;;29.06;45.53
60019;BME280;45870;42.528;26.740;2023-07-13T03:17:33;99695.72;;;29.91;44.41
60019;BME280;45870;42.528;26.740;2023-07-13T03:19:59;99691.91;;;30.34;42.64
60019;BME280;45870;42.528;26.740;2023-07-13T03:22:24;99695.09;;;30.71;42.16
60019;BME280;45870;42.528;26.740;2023-07-13T03:24:50;99688.22;;;31.07;39.91
60019;BME280;45870;42.528;26.740;2023-07-13T03:27:17;99697.78;;;31.29;39.99
60019;BME280;45870;42.528;26.740;2023-07-13T03:29:43;99700.47;;;32.23;38.73
60019;BME280;45870;42.528;26.740;2023-07-13T03:32:08;99716.25;;;33.01;37.57
60019;BME280;45870;42.528;26.740;2023-07-13T03:34:34;99709.00;;;33.78;36.38
60019;BME280;45870;42.528;26.740;2023-07-13T03:37:00;99724.63;;;34.44;35.07
60019;BME280;45870;42.528;26.740;2023-07-13T03:39:26;99586.22;;;33.80;34.28
60019;BME280;45870;42.528;26.740;2023-07-13T03:41:52;99712.50;;;35.58;32.82
60019;BME280;45870;42.528;26.740;2023-07-13T03:44:18;99719.75;;;35.94;32.17
60019;BME280;45870;42.528;26.740;2023-07-13T03:46:44;99719.38;;;35.68;32.76
60019;BME280;45870;42.528;26.740;2023-07-13T03:49:10;99710.44;;;36.33;31.83
60019;BME280;45870;42.528;26.740;2023-07-13T03:51:36;99727.28;;;36.36;31.87
60019;BME280;45870;42.528;26.740;2023-07-13T03:54:03;99729.56;;;37.49;30.73
60019;BME280;45870;42.528;26.740;2023-07-13T03:56:29;99726.81;;;37.87;29.69
60019;BME280;45870;42.528;26.740;2023-07-13T03:58:56;99734.75;;;38.74;28.99
60019;BME280;45870;42.528;26.740;2023-07-13T04:01:23;99710.69;;;38.96;27.75
60019;BME280;45870;42.528;26.740;2023-07-13T04:03:50;99726.50;;;39.93;27.30
60019;BME280;45870;42.528;26.740;2023-07-13T04:06:29;99727.59;;;40.00;26.91
60019;BME280;45870;42.528;26.740;2023-07-13T04:09:00;99724.91;;;39.92;27.00
60019;BME280;45870;42.528;26.740;2023-07-13T04:11:28;99728.91;;;40.38;26.50
60019;BME280;45870;42.528;26.740;2023-07-13T04:13:54;99727.56;;;40.23;26.73
60019;BME280;45870;42.528;26.740;2023-07-13T04:16:21;99733.03;;;40.53;26.59
60019;BME280;45870;42.528;26.740;2023-07-13T04:18:47;99723.41;;;39.08;28.57
60019;BME280;45870;42.528;26.740;2023-07-13T04:21:13;99729.63;;;41.01;25.92
60019;BME280;45870;42.528;26.740;2023-07-13T04:23:39;99738.97;;;42.15;24.68
60019;BME280;45870;42.528;26.740;2023-07-13T04:26:06;99730.53;;;43.23;22.93
60019;BME280;45870;42.528;26.740;2023-07-13T04:28:32;99743.78;;;42.47;24.23
60019;BME280;45870;42.528;26.740;2023-07-13T04:30:58;99704.75;;;43.17;23.27
60019;BME280;45870;42.528;26.740;2023-07-13T04:33:24;99732.44;;;43.64;22.37
60019;BME280;45870;42.528;26.740;2023-07-13T04:35:51;99732.56;;;44.42;21.15
60019;BME280;45870;42.528;26.740;2023-07-13T04:38:20;99735.44;;;44.63;21.31
60019;BME280;45870;42.528;26.740;2023-07-13T04:40:47;99715.34;;;43.89;21.81
60019;BME280;45870;42.528;26.740;2023-07-13T04:43:13;99746.50;;;43.93;21.98
60019;BME280;45870;42.528;26.740;2023-07-13T04:45:38;99745.31;;;39.54;27.69
60019;BME280;45870;42.528;26.740;2023-07-13T04:48:04;99749.09;;;44.00;21.95
60019;BME280;45870;42.528;26.740;2023-07-13T04:50:30;99745.84;;;44.57;20.76
60019;BME280;45870;42.528;26.740;2023-07-13T04:52:56;99750.03;;;43.97;21.71
60019;BME280;45870;42.528;26.740;2023-07-13T04:55:21;99759.00;;;41.92;24.00
60019;BME280;45870;42.528;26.740;2023-07-13T04:57:47;99746.47;;;42.79;23.39
60019;BME280;45870;42.528;26.740;2023-07-13T05:00:14;99751.56;;;39.41;27.41
60019;BME280;45870;42.528;26.740;2023-07-13T05:02:43;99749.63;;;41.10;24.93
60019;BME280;45870;42.528;26.740;2023-07-13T05:05:09;99749.25;;;37.53;29.53
60019;BME280;45870;42.528;26.740;2023-07-13T05:07:35;99708.53;;;36.99;31.14
60019;BME280;45870;42.528;26.740;2023-07-13T05:10:02;99744.75;;;40.55;25.72
60019;BME280;45870;42.528;26.740;2023-07-13T05:12:29;99753.75;;;40.27;26.06
60019;BME280;45870;42.528;26.740;2023-07-13T05:14:55;99744.22;;;38.57;28.86
60019;BME280;45870;42.528;26.740;2023-07-13T05:17:21;99748.69;;;40.38;26.58
60019;BME280;45870;42.528;26.740;2023-07-13T05:19:46;99754.69;;;41.19;25.14
60019;BME280;45870;42.528;26.740;2023-07-13T05:22:12;99684.09;;;39.47;27.54
60019;BME280;45870;42.528;26.740;2023-07-13T05:24:38;99765.84;;;41.62;24.21
60019;BME280;45870;42.528;26.740;2023-07-13T05:27:04;99754.00;;;40.75;25.76
60019;BME280;45870;42.528;26.740;2023-07-13T05:29:30;99762.00;;;40.61;26.07
60019;BME280;45870;42.528;26.740;2023-07-13T05:31:55;99765.09;;;38.96;27.53
60019;BME280;45870;42.528;26.740;2023-07-13T05:34:21;99754.75;;;40.99;25.37
60019;BME280;45870;42.528;26.740;2023-07-13T05:36:47;99760.69;;;35.67;32.90
60019;BME280;45870;42.528;26.740;2023-07-13T05:39:14;99760.19;;;38.70;29.18
60019;BME280;45870;42.528;26.740;2023-07-13T05:41:40;99757.69;;;43.37;23.01
60019;BME280;45870;42.528;26.740;2023-07-13T05:44:05;99757.88;;;42.92;22.52
60019;BME280;45870;42.528;26.740;2023-07-13T05:46:31;99760.66;;;44.18;21.31
60019;BME280;45870;42.528;26.740;2023-07-13T05:48:57;99753.13;;;45.42;20.42
60019;BME280;45870;42.528;26.740;2023-07-13T05:51:22;99743.84;;;44.11;21.74
60019;BME280;45870;42.528;26.740;2023-07-13T05:53:48;99772.66;;;41.48;24.52
60019;BME280;45870;42.528;26.740;2023-07-13T05:56:14;99766.03;;;42.90;22.64
60019;BME280;45870;42.528;26.740;2023-07-13T05:58:39;99732.00;;;43.02;22.50
60019;BME280;45870;42.528;26.740;2023-07-13T06:01:08;99753.28;;;44.08;21.67
60019;BME280;45870;42.528;26.740;2023-07-13T06:03:35;99722.03;;;40.59;25.64
60019;BME280;45870;42.528;26.740;2023-07-13T06:06:01;99764.13;;;40.14;27.12
60019;BME280;45870;42.528;26.740;2023-07-13T06:08:27;99753.09;;;40.62;26.90
60019;BME280;45870;42.528;26.740;2023-07-13T06:10:53;99751.56;;;40.58;25.75
60019;BME280;45870;42.528;26.740;2023-07-13T06:13:19;99754.44;;;41.81;24.81
60019;BME280;45870;42.528;26.740;2023-07-13T06:15:48;99732.63;;;42.81;23.24
60019;BME280;45870;42.528;26.740;2023-07-13T06:18:15;99751.06;;;42.60;22.98
60019;BME280;45870;42.528;26.740;2023-07-13T06:20:40;99749.06;;;43.40;22.93
60019;BME280;45870;42.528;26.740;2023-07-13T06:23:06;99737.69;;;43.02;22.52
60019;BME280;45870;42.528;26.740;2023-07-13T06:25:31;99747.84;;;42.01;24.71
60019;BME280;45870;42.528;26.740;2023-07-13T06:27:57;99748.03;;;43.34;22.94
60019;BME280;45870;42.528;26.740;2023-07-13T06:30:23;99742.88;;;42.50;23.05
60019;BME280;45870;42.528;26.740;2023-07-13T06:32:49;99745.84;;;45.41;20.59
60019;BME280;45870;42.528;26.740;2023-07-13T06:35:14;99734.16;;;43.36;22.55
60019;BME280;45870;42.528;26.740;2023-07-13T06:37:40;99732.44;;;41.53;24.18
60019;BME280;45870;42.528;26.740;2023-07-13T06:40:06;99728.91;;;42.26;24.44
60019;BME280;45870;42.528;26.740;2023-07-13T06:42:32;99747.84;;;42.46;23.81
60019;BME280;45870;42.528;26.740;2023-07-13T06:44:57;99733.31;;;41.34;24.68
60019;BME280;45870;42.528;26.740;2023-07-13T06:47:24;99734.94;;;41.83;24.47
60019;BME280;45870;42.528;26.740;2023-07-13T06:49:50;99711.94;;;40.58;27.34
60019;BME280;45870;42.528;26.740;2023-07-13T06:52:16;99728.00;;;42.01;25.58
60019;BME280;45870;42.528;26.740;2023-07-13T06:54:41;99732.97;;;39.44;28.13
60019;BME280;45870;42.528;26.740;2023-07-13T06:57:07;99738.94;;;43.26;22.99
60019;BME280;45870;42.528;26.740;2023-07-13T06:59:33;99734.19;;;43.49;22.19
60019;BME280;45870;42.528;26.740;2023-07-13T07:01:59;99733.59;;;43.16;22.20
60019;BME280;45870;42.528;26.740;2023-07-13T07:04:24;99724.47;;;44.84;21.23
60019;BME280;45870;42.528;26.740;2023-07-13T07:06:50;99737.00;;;45.48;20.42
60019;BME280;45870;42.528;26.740;2023-07-13T07:09:16;99739.72;;;45.60;19.78
60019;BME280;45870;42.528;26.740;2023-07-13T07:11:42;99713.13;;;43.34;22.70
60019;BME280;45870;42.528;26.740;2023-07-13T07:14:08;99725.09;;;45.00;21.57
60019;BME280;45870;42.528;26.740;2023-07-13T07:16:33;99719.28;;;42.24;23.46
60019;BME280;45870;42.528;26.740;2023-07-13T07:18:59;99685.94;;;43.58;21.61
60019;BME280;45870;42.528;26.740;2023-07-13T07:21:25;99715.31;;;44.02;22.30
60019;BME280;45870;42.528;26.740;2023-07-13T07:23:52;99725.97;;;41.53;24.69
60019;BME280;45870;42.528;26.740;2023-07-13T07:26:18;99726.56;;;42.25;23.40
60019;BME280;45870;42.528;26.740;2023-07-13T07:28:43;99723.22;;;43.72;21.82
60019;BME280;45870;42.528;26.740;2023-07-13T07:31:09;99702.59;;;41.65;24.05
60019;BME280;45870;42.528;26.740;2023-07-13T07:33:35;99726.97;;;42.94;22.49
60019;BME280;45870;42.528;26.740;2023-07-13T07:36:01;99692.00;;;43.47;22.15
60019;BME280;45870;42.528;26.740;2023-07-13T07:38:27;99691.75;;;41.92;24.25
60019;BME280;45870;42.528;26.740;2023-07-13T07:40:53;99721.88;;;43.01;23.60
60019;BME280;45870;42.528;26.740;2023-07-13T07:43:19;99722.78;;;42.57;23.32
60019;BME280;45870;42.528;26.740;2023-07-13T07:45:45;99723.59;;;43.37;22.44
60019;BME280;45870;42.528;26.740;2023-07-13T07:48:11;99683.97;;;44.14;21.52
60019;BME280;45870;42.528;26.740;2023-07-13T07:50:37;99723.56;;;44.43;22.56
60019;BME280;45870;42.528;26.740;2023-07-13T07:53:05;99724.91;;;46.38;19.49
60019;BME280;45870;42.528;26.740;2023-07-13T07:55:35;99696.94;;;45.11;20.71
60019;BME280;45870;42.528;26.740;2023-07-13T07:58:02;99696.84;;;44.19;21.51
60019;BME280;45870;42.528;26.740;2023-07-13T08:00:28;99717.38;;;44.57;20.48
60019;BME280;45870;42.528;26.740;2023-07-13T08:02:55;99720.84;;;44.40;21.04
60019;BME280;45870;42.528;26.740;2023-07-13T08:05:21;99721.00;;;44.36;21.49
60019;BME280;45870;42.528;26.740;2023-07-13T08:07:47;99723.66;;;45.85;19.39
60019;BME280;45870;42.528;26.740;2023-07-13T08:10:13;99713.31;;;42.76;23.11
60019;BME280;45870;42.528;26.740;2023-07-13T08:12:39;99724.13;;;43.82;23.02
60019;BME280;45870;42.528;26.740;2023-07-13T08:15:08;99718.00;;;42.95;23.11
60019;BME280;45870;42.528;26.740;2023-07-13T08:17:34;99718.19;;;42.75;23.87
60019;BME280;45870;42.528;26.740;2023-07-13T08:20:00;99713.44;;;44.86;21.95
60019;BME280;45870;42.528;26.740;2023-07-13T08:22:27;99707.66;;;46.33;19.36
60019;BME280;45870;42.528;26.740;2023-07-13T08:24:52;99714.09;;;47.63;19.17
60019;BME280;45870;42.528;26.740;2023-07-13T08:27:26;99706.53;;;43.62;22.47
60019;BME280;45870;42.528;26.740;2023-07-13T08:29:52;99708.91;;;42.75;23.88
60019;BME280;45870;42.528;26.740;2023-07-13T08:32:20;99704.94;;;46.29;19.31
60019;BME280;45870;42.528;26.740;2023-07-13T08:34:46;99703.88;;;44.14;22.11
60019;BME280;45870;42.528;26.740;2023-07-13T08:37:13;99694.56;;;45.59;20.08
60019;BME280;45870;42.528;26.740;2023-07-13T08:39:38;99658.88;;;44.00;21.44
60019;BME280;45870;42.528;26.740;2023-07-13T08:42:33;99689.22;;;44.90;21.62
60019;BME280;45870;42.528;26.740;2023-07-13T08:45:11;99711.31;;;46.15;20.07
60019;BME280;45870;42.528;26.740;2023-07-13T08:47:44;99701.16;;;47.43;18.60
60019;BME280;45870;42.528;26.740;2023-07-13T08:50:14;99656.66;;;49.01;17.93
60019;BME280;45870;42.528;26.740;2023-07-13T08:52:42;99672.75;;;46.01;18.97
60019;BME280;45870;42.528;26.740;2023-07-13T08:55:24;99707.03;;;44.29;21.81
60019;BME280;45870;42.528;26.740;2023-07-13T08:58:00;99686.75;;;46.96;19.96
60019;BME280;45870;42.528;26.740;2023-07-13T09:00:36;99699.81;;;44.37;21.54
60019;BME280;45870;42.528;26.740;2023-07-13T09:03:05;99653.94;;;46.13;20.10
60019;BME280;45870;42.528;26.740;2023-07-13T09:05:40;99700.94;;;46.72;19.06
60019;BME280;45870;42.528;26.740;2023-07-13T09:11:03;99695.84;;;47.27;18.27
60019;BME280;45870;42.528;26.740;2023-07-13T09:16:17;99684.53;;;44.09;21.89
60019;BME280;45870;42.528;26.740;2023-07-13T09:18:46;99695.78;;;47.36;17.75
60019;BME280;45870;42.528;26.740;2023-07-13T09:21:22;99654.28;;;47.88;17.55
60019;BME280;45870;42.528;26.740;2023-07-13T09:23:53;99662.19;;;44.42;21.24
60019;BME280;45870;42.528;26.740;2023-07-13T09:26:23;99682.66;;;46.79;19.04
60019;BME280;45870;42.528;26.740;2023-07-13T09:29:23;99664.31;;;48.22;16.01
60019;BME280;45870;42.528;26.740;2023-07-13T09:31:55;99674.19;;;48.21;17.34
60019;BME280;45870;42.528;26.740;2023-07-13T09:34:25;99666.59;;;49.06;16.36
60019;BME280;45870;42.528;26.740;2023-07-13T09:36:51;99636.94;;;46.79;18.02
60019;BME280;45870;42.528;26.740;2023-07-13T09:39:41;99660.53;;;46.28;19.16
60019;BME280;45870;42.528;26.740;2023-07-13T09:42:15;99643.34;;;49.53;16.52
60019;BME280;45870;42.528;26.740;2023-07-13T09:45:01;99656.09;;;49.18;15.54
60019;BME280;45870;42.528;26.740;2023-07-13T09:47:33;99658.50;;;47.54;17.23
60019;BME280;45870;42.528;26.740;2023-07-13T09:50:06;99620.66;;;49.56;14.70
60019;BME280;45870;42.528;26.740;2023-07-13T09:52:44;99654.78;;;45.37;18.21
60019;BME280;45870;42.528;26.740;2023-07-13T09:55:34;99610.56;;;48.41;15.19
60019;BME280;45870;42.528;26.740;2023-07-13T09:58:14;99646.75;;;46.17;17.13
60019;BME280;45870;42.528;26.740;2023-07-13T10:00:43;99608.06;;;45.62;17.48
60019;BME280;45870;42.528;26.740;2023-07-13T10:03:23;99637.84;;;46.52;16.52
60019;BME280;45870;42.528;26.740;2023-07-13T10:05:51;99628.88;;;48.93;14.79
60019;BME280;45870;42.528;26.740;2023-07-13T10:08:29;99618.88;;;49.78;12.71
60019;BME280;45870;42.528;26.740;2023-07-13T10:11:00;99603.31;;;47.63;15.04
60019;BME280;45870;42.528;26.740;2023-07-13T10:13:37;99562.22;;;47.51;14.88
60019;BME280;45870;42.528;26.740;2023-07-13T10:16:06;99609.38;;;46.66;15.36
60019;BME280;45870;42.528;26.740;2023-07-13T10:19:11;99571.94;;;46.04;16.36
60019;BME280;45870;42.528;26.740;2023-07-13T10:21:53;99590.41;;;47.82;15.00
60019;BME280;45870;42.528;26.740;2023-07-13T10:24:22;99602.34;;;47.19;15.96
60019;BME280;45870;42.528;26.740;2023-07-13T10:29:46;99592.41;;;45.85;17.77
60019;BME280;45870;42.528;26.740;2023-07-13T10:32:14;99576.41;;;44.22;18.90
60019;BME280;45870;42.528;26.740;2023-07-13T10:34:43;99585.03;;;46.89;16.11
60019;BME280;45870;42.528;26.740;2023-07-13T10:37:19;99564.59;;;44.33;17.97
60019;BME280;45870;42.528;26.740;2023-07-13T10:39:48;99524.00;;;43.33;18.84
60019;BME280;45870;42.528;26.740;2023-07-13T10:42:27;99562.28;;;46.02;16.85
60019;BME280;45870;42.528;26.740;2023-07-13T10:44:54;99547.44;;;47.91;15.85
60019;BME280;45870;42.528;26.740;2023-07-13T10:47:20;99553.69;;;46.20;16.16
60019;BME280;45870;42.528;26.740;2023-07-13T10:49:47;99561.03;;;47.43;16.63
60019;BME280;45870;42.528;26.740;2023-07-13T10:52:47;99570.59;;;48.81;13.16
60019;BME280;45870;42.528;26.740;2023-07-13T10:58:21;99527.00;;;46.32;15.35
60019;BME280;45870;42.528;26.740;2023-07-13T11:00:51;99566.59;;;48.44;14.13
60019;BME280;45870;42.528;26.740;2023-07-13T11:03:20;99561.59;;;46.76;16.98
60019;BME280;45870;42.528;26.740;2023-07-13T11:05:51;99565.31;;;46.58;15.23
60019;BME280;45870;42.528;26.740;2023-07-13T11:08:38;99576.22;;;45.82;18.16
60019;BME280;45870;42.528;26.740;2023-07-13T11:13:58;99564.63;;;44.42;18.37
60019;BME280;45870;42.528;26.740;2023-07-13T11:18:51;99556.75;;;44.86;17.74
60019;BME280;45870;42.528;26.740;2023-07-13T11:21:27;99553.94;;;44.02;19.65
60019;BME280;45870;42.528;26.740;2023-07-13T11:24:03;99573.06;;;45.52;18.04
60019;BME280;45870;42.528;26.740;2023-07-13T11:29:33;99560.91;;;44.01;18.49
60019;BME280;45870;42.528;26.740;2023-07-13T11:32:23;99558.81;;;44.85;17.10
60019;BME280;45870;42.528;26.740;2023-07-13T11:34:53;99555.59;;;46.23;18.19
60019;BME280;45870;42.528;26.740;2023-07-13T11:37:20;99524.75;;;44.11;18.02
60019;BME280;45870;42.528;26.740;2023-07-13T11:39:52;99540.38;;;43.28;19.60
60019;BME280;45870;42.528;26.740;2023-07-13T11:42:20;99551.81;;;45.90;17.70
60019;BME280;45870;42.528;26.740;2023-07-13T11:44:50;99550.44;;;44.91;19.05
60019;BME280;45870;42.528;26.740;2023-07-13T11:47:21;99529.28;;;46.01;17.47
60019;BME280;45870;42.528;26.740;2023-07-13T11:49:51;99544.19;;;44.34;17.41
60019;BME280;45870;42.528;26.740;2023-07-13T11:52:21;99530.13;;;45.38;17.46
60019;BME280;45870;42.528;26.740;2023-07-13T11:54:54;99551.06;;;44.55;17.25
60019;BME280;45870;42.528;26.740;2023-07-13T11:57:38;99544.97;;;43.82;18.38
60019;BME280;45870;42.528;26.740;2023-07-13T12:00:15;99513.47;;;43.76;17.98
60019;BME280;45870;42.528;26.740;2023-07-13T12:02:47;99553.09;;;45.52;18.35
60019;BME280;45870;42.528;26.740;2023-07-13T12:05:16;99552.13;;;46.10;15.45
60019;BME280;45870;42.528;26.740;2023-07-13T12:07:46;99510.28;;;45.98;14.61
60019;BME280;45870;42.528;26.740;2023-07-13T12:12:53;99539.84;;;46.28;16.81
60019;BME280;45870;42.528;26.740;2023-07-13T12:15:22;99539.72;;;44.02;18.28
60019;BME280;45870;42.528;26.740;2023-07-13T12:17:48;99539.41;;;44.22;17.90
60019;BME280;45870;42.528;26.740;2023-07-13T12:20:37;99498.31;;;44.63;16.64
60019;BME280;45870;42.528;26.740;2023-07-13T12:23:10;99540.00;;;44.88;17.56
60019;BME280;45870;42.528;26.740;2023-07-13T12:25:40;99524.59;;;44.36;16.86
60019;BME280;45870;42.528;26.740;2023-07-13T12:28:39;99522.22;;;45.60;17.10
60019;BME280;45870;42.528;26.740;2023-07-13T12:33:47;99517.97;;;46.66;15.29
60019;BME280;45870;42.528;26.740;2023-07-13T12:36:15;99484.53;;;45.56;16.14
60019;BME280;45870;42.528;26.740;2023-07-13T12:38:45;99470.72;;;45.63;15.36
60019;BME280;45870;42.528;26.740;2023-07-13T12:41:11;99499.09;;;44.63;17.55
60019;BME280;45870;42.528;26.740;2023-07-13T12:43:37;99494.94;;;47.94;14.44
60019;BME280;45870;42.528;26.740;2023-07-13T12:46:19;99485.78;;;47.37;13.90
60019;BME280;45870;42.528;26.740;2023-07-13T12:48:54;99484.03;;;47.54;14.69
60019;BME280;45870;42.528;26.740;2023-07-13T12:51:27;99474.25;;;46.84;15.30
60019;BME280;45870;42.528;26.740;2023-07-13T12:54:05;99475.09;;;48.90;13.83
60019;BME280;45870;42.528;26.740;2023-07-13T12:56:32;99468.69;;;46.57;15.59
60019;BME280;45870;42.528;26.740;2023-07-13T12:59:03;99459.88;;;51.18;12.41
60019;BME280;45870;42.528;26.740;2023-07-13T13:01:32;99460.63;;;49.39;12.78
60019;BME280;45870;42.528;26.740;2023-07-13T13:04:02;99420.50;;;51.57;11.77
60019;BME280;45870;42.528;26.740;2023-07-13T13:06:32;99449.72;;;50.69;12.57
60019;BME280;45870;42.528;26.740;2023-07-13T13:08:59;99437.50;;;50.85;11.98
60019;BME280;45870;42.528;26.740;2023-07-13T13:11:27;99422.13;;;51.69;11.91
60019;BME280;45870;42.528;26.740;2023-07-13T13:13:53;99445.19;;;53.51;10.94
60019;BME280;45870;42.528;26.740;2023-07-13T13:16:31;99439.38;;;51.97;11.13
60019;BME280;45870;42.528;26.740;2023-07-13T13:18:59;99429.13;;;48.99;13.41
60019;BME280;45870;42.528;26.740;2023-07-13T13:21:27;99428.63;;;46.42;15.13
60019;BME280;45870;42.528;26.740;2023-07-13T13:23:53;99441.66;;;44.16;16.94
60019;BME280;45870;42.528;26.740;2023-07-13T13:26:21;99433.63;;;44.63;16.63
60019;BME280;45870;42.528;26.740;2023-07-13T13:28:47;99435.97;;;43.85;16.99